createdAt,value
2023-04-12T00:00:45.857Z,-1.56
2023-04-12T00:02:45.961Z,-1.44
2023-04-12T00:03:45.902Z,-1.67
2023-04-12T00:04:46.202Z,-1.11
2023-04-12T00:06:45.851Z,-1.11
2023-04-12T00:07:45.849Z,-1.44
2023-04-12T00:08:45.856Z,-1.56
2023-04-12T00:09:45.852Z,-1.11
2023-04-12T00:11:45.844Z,-1.28
2023-04-12T00:12:45.835Z,-1.44
2023-04-12T00:13:45.841Z,-1.56
2023-04-12T00:14:45.848Z,-1
2023-04-12T00:15:45.855Z,-1.28
2023-04-12T00:16:45.851Z,-0.83
2023-04-12T00:17:45.867Z,-0.83
2023-04-12T00:18:45.888Z,-0.83
2023-04-12T00:19:45.853Z,-0.83
2023-04-12T00:20:45.876Z,-0.67
2023-04-12T00:22:45.842Z,-0.83
2023-04-12T00:24:45.858Z,-0.83
2023-04-12T00:25:45.867Z,-0.83
2023-04-12T00:27:45.853Z,-0.56
2023-04-12T00:29:45.865Z,-0.83
2023-04-12T00:31:45.863Z,-1.11
2023-04-12T00:32:45.889Z,-1.11
2023-04-12T00:33:45.863Z,-1.28
2023-04-12T00:35:45.853Z,-1
2023-04-12T00:36:45.964Z,-0.83
2023-04-12T00:38:45.866Z,-0.83
2023-04-12T00:39:45.850Z,-1
2023-04-12T00:40:45.860Z,-1
2023-04-12T00:41:45.841Z,-0.83
2023-04-12T00:42:45.858Z,-0.83
2023-04-12T00:43:45.846Z,-0.83
2023-04-12T00:44:45.853Z,-0.83
2023-04-12T00:45:45.845Z,-1
2023-04-12T00:46:45.925Z,-0.83
2023-04-12T00:48:45.852Z,-1
2023-04-12T00:49:45.850Z,-0.83
2023-04-12T00:50:45.847Z,-0.83
2023-04-12T00:51:45.872Z,-0.83
2023-04-12T00:52:45.873Z,-0.67
2023-04-12T00:54:45.858Z,-0.56
2023-04-12T00:56:45.857Z,-0.83
2023-04-12T00:57:45.859Z,-0.56
2023-04-12T00:58:45.857Z,-0.39
2023-04-12T01:00:45.887Z,-0.56
2023-04-12T01:02:45.994Z,-1
2023-04-12T01:04:45.856Z,-0.83
2023-04-12T01:05:45.849Z,-1
2023-04-12T01:06:45.868Z,-0.83
2023-04-12T01:08:45.908Z,-1
2023-04-12T01:10:45.858Z,-0.83
2023-04-12T01:11:45.854Z,-0.67
2023-04-12T01:13:45.870Z,-1
2023-04-12T01:14:45.848Z,-1.28
2023-04-12T01:15:45.862Z,-1
2023-04-12T01:16:45.882Z,-1
2023-04-12T01:17:45.883Z,-1
2023-04-12T01:18:45.850Z,-0.83
2023-04-12T01:19:45.855Z,-1.28
2023-04-12T01:20:45.859Z,-1.28
2023-04-12T01:21:45.855Z,-1.28
2023-04-12T01:22:45.866Z,-1.11
2023-04-12T01:23:45.856Z,-1.56
2023-04-12T01:24:45.897Z,-1.44
2023-04-12T01:25:45.879Z,-1.44
2023-04-12T01:26:45.863Z,-1.11
2023-04-12T01:27:45.869Z,-1.11
2023-04-12T01:29:45.861Z,-1
2023-04-12T01:30:45.879Z,-0.83
2023-04-12T01:31:45.913Z,-1.11
2023-04-12T01:32:45.880Z,-0.83
2023-04-12T01:34:45.857Z,-1.11
2023-04-12T01:36:45.857Z,-0.83
2023-04-12T01:37:45.868Z,-1
2023-04-12T01:38:45.853Z,-0.83
2023-04-12T01:39:45.869Z,-1.11
2023-04-12T01:40:45.885Z,-1
2023-04-12T01:42:45.860Z,-0.83
2023-04-12T01:43:45.863Z,-0.83
2023-04-12T01:44:45.888Z,-1.28
2023-04-12T01:45:45.888Z,-0.83
2023-04-12T01:47:45.927Z,-1
2023-04-12T01:48:45.873Z,-1.44
2023-04-12T01:49:45.869Z,-1
2023-04-12T01:50:45.871Z,-1.11
2023-04-12T01:51:45.875Z,-1.28
2023-04-12T01:52:45.881Z,-1.28
2023-04-12T01:53:45.887Z,-1.28
2023-04-12T01:54:45.871Z,-1.28
2023-04-12T01:55:45.890Z,-1.28
2023-04-12T01:56:45.893Z,-1.28
2023-04-12T01:57:45.853Z,-1.11
2023-04-12T01:58:45.875Z,-0.83
2023-04-12T01:59:45.865Z,-0.83
2023-04-12T02:00:45.900Z,-0.83
2023-04-12T02:02:46.002Z,-0.83
2023-04-12T02:03:45.906Z,-0.83
2023-04-12T02:04:45.878Z,-0.56
2023-04-12T02:05:45.864Z,-0.56
2023-04-12T02:06:45.871Z,-0.39
2023-04-12T02:07:45.887Z,-0.83
2023-04-12T02:08:45.870Z,-0.67
2023-04-12T02:09:45.874Z,-0.56
2023-04-12T02:10:45.887Z,-0.83
2023-04-12T02:11:45.868Z,-0.67
2023-04-12T02:12:45.908Z,-0.56
2023-04-12T02:13:45.868Z,-0.67
2023-04-12T02:14:45.885Z,-0.56
2023-04-12T02:15:45.912Z,-1
2023-04-12T02:16:45.917Z,-0.83
2023-04-12T02:17:45.941Z,-0.67
2023-04-12T02:18:45.876Z,-0.56
2023-04-12T02:20:45.887Z,-0.39
2023-04-12T02:21:45.872Z,-0.28
2023-04-12T02:22:45.879Z,-0.39
2023-04-12T02:24:45.895Z,-0.39
2023-04-12T02:25:45.877Z,-0.67
2023-04-12T02:26:45.880Z,-0.39
2023-04-12T02:28:45.904Z,-0.39
2023-04-12T02:30:45.903Z,-0.39
2023-04-12T02:31:45.870Z,-0.67
2023-04-12T02:32:45.914Z,-0.39
2023-04-12T02:33:45.908Z,-0.39
2023-04-12T02:35:45.906Z,-0.67
2023-04-12T02:36:45.889Z,-0.67
2023-04-12T02:37:45.905Z,-0.67
2023-04-12T02:39:45.887Z,-1
2023-04-12T02:40:45.892Z,-0.56
2023-04-12T02:41:45.877Z,-0.56
2023-04-12T02:42:45.886Z,-1
2023-04-12T02:43:45.885Z,-0.39
2023-04-12T02:44:45.916Z,-0.39
2023-04-12T02:45:45.905Z,-0.83
2023-04-12T02:46:45.915Z,-0.56
2023-04-12T02:47:45.920Z,-0.39
2023-04-12T02:49:45.891Z,-0.39
2023-04-12T02:50:45.900Z,-0.67
2023-04-12T02:52:45.890Z,-0.39
2023-04-12T02:53:45.903Z,-0.67
2023-04-12T02:54:45.894Z,-0.56
2023-04-12T02:56:45.889Z,-0.39
2023-04-12T02:58:45.892Z,-0.39
2023-04-12T03:00:45.937Z,-0.17
2023-04-12T03:02:46.016Z,-0.28
2023-04-12T03:03:46.000Z,-0.28
2023-04-12T03:04:45.905Z,-0.39
2023-04-12T03:06:45.913Z,-0.39
2023-04-12T03:07:45.918Z,-0.39
2023-04-12T03:08:45.922Z,-0.28
2023-04-12T03:10:45.896Z,-0.39
2023-04-12T03:11:45.899Z,-0.39
2023-04-12T03:13:45.893Z,-0.28
2023-04-12T03:14:45.914Z,-0.67
2023-04-12T03:15:45.903Z,-0.56
2023-04-12T03:16:45.930Z,-0.67
2023-04-12T03:17:45.960Z,-0.83
2023-04-12T03:18:45.904Z,-0.67
2023-04-12T03:19:45.898Z,-0.67
2023-04-12T03:20:47.597Z,-0.67
2023-04-12T03:21:45.889Z,-0.83
2023-04-12T03:22:45.903Z,-0.56
2023-04-12T03:24:45.906Z,-0.83
2023-04-12T03:25:45.915Z,-0.56
2023-04-12T03:27:45.905Z,-0.56
2023-04-12T03:28:45.898Z,-0.67
2023-04-12T03:29:45.904Z,-0.39
2023-04-12T03:30:45.933Z,-0.39
2023-04-12T03:31:45.912Z,-0.67
2023-04-12T03:32:45.978Z,-0.56
2023-04-12T03:34:45.890Z,-0.39
2023-04-12T03:35:45.918Z,-0.56
2023-04-12T03:37:45.912Z,-0.39
2023-04-12T03:38:45.891Z,-0.39
2023-04-12T03:39:45.900Z,-0.39
2023-04-12T03:41:45.896Z,-0.83
2023-04-12T03:42:45.908Z,-0.56
2023-04-12T03:43:45.925Z,-0.39
2023-04-12T03:45:45.928Z,-0.39
2023-04-12T03:47:45.920Z,-0.56
2023-04-12T03:48:45.981Z,-0.39
2023-04-12T03:49:51.702Z,-0.39
2023-04-12T03:50:45.918Z,-0.39
2023-04-12T03:52:45.912Z,-0.39
2023-04-12T03:53:45.906Z,-0.67
2023-04-12T03:54:45.921Z,-0.39
2023-04-12T03:55:45.932Z,-0.56
2023-04-12T03:56:46.331Z,-0.67
2023-04-12T03:58:45.893Z,-0.17
2023-04-12T03:59:45.903Z,0
2023-04-12T04:00:45.923Z,0.17
2023-04-12T04:01:45.965Z,0.17
2023-04-12T04:03:46.512Z,0
2023-04-12T04:04:45.961Z,-0.17
2023-04-12T04:06:45.902Z,0
2023-04-12T04:08:45.916Z,0
2023-04-12T04:09:45.922Z,0.28
2023-04-12T04:11:45.904Z,0.17
2023-04-12T04:13:45.933Z,0.17
2023-04-12T04:15:45.929Z,0.44
2023-04-12T04:16:45.961Z,0
2023-04-12T04:17:45.937Z,0.17
2023-04-12T04:18:45.927Z,0.28
2023-04-12T04:19:45.908Z,0.17
2023-04-12T04:20:45.998Z,0.28
2023-04-12T04:22:45.914Z,0.44
2023-04-12T04:24:45.934Z,-0.17
2023-04-12T04:25:45.922Z,-0.67
2023-04-12T04:27:45.927Z,-0.39
2023-04-12T04:28:45.914Z,-0.39
2023-04-12T04:29:45.924Z,-0.39
2023-04-12T04:30:45.923Z,-0.39
2023-04-12T04:32:46.025Z,-0.28
2023-04-12T04:34:45.926Z,-0.17
2023-04-12T04:35:45.937Z,-0.39
2023-04-12T04:36:45.974Z,-0.39
2023-04-12T04:37:45.924Z,-0.39
2023-04-12T04:38:45.926Z,-0.28
2023-04-12T04:39:45.922Z,-0.28
2023-04-12T04:40:45.931Z,-0.17
2023-04-12T04:42:45.915Z,-0.28
2023-04-12T04:43:45.912Z,-0.17
2023-04-12T04:44:45.931Z,-0.17
2023-04-12T04:45:45.929Z,-0.17
2023-04-12T04:47:45.949Z,0
2023-04-12T04:48:45.926Z,-0.17
2023-04-12T04:49:45.908Z,-0.39
2023-04-12T04:50:45.927Z,0
2023-04-12T04:52:45.941Z,-0.17
2023-04-12T04:54:45.937Z,0
2023-04-12T04:55:45.936Z,-0.28
2023-04-12T04:57:45.949Z,0
2023-04-12T04:58:45.935Z,-0.67
2023-04-12T04:59:45.956Z,-0.17
2023-04-12T05:00:45.945Z,-0.17
2023-04-12T05:01:45.951Z,-0.17
2023-04-12T05:02:46.172Z,-0.17
2023-04-12T05:03:46.016Z,-0.39
2023-04-12T05:04:45.955Z,-0.67
2023-04-12T05:06:45.947Z,-0.28
2023-04-12T05:08:45.953Z,-0.28
2023-04-12T05:09:45.928Z,-0.17
2023-04-12T05:10:45.926Z,-0.17
2023-04-12T05:11:45.937Z,-0.17
2023-04-12T05:13:45.930Z,-0.17
2023-04-12T05:15:45.922Z,0.28
2023-04-12T05:16:46.020Z,0.28
2023-04-12T05:18:45.949Z,0.44
2023-04-12T05:19:45.944Z,0.44
2023-04-12T05:21:45.951Z,0.44
2023-04-12T05:22:45.934Z,0.28
2023-04-12T05:24:45.952Z,0.72
2023-04-12T05:26:45.957Z,0.61
2023-04-12T05:27:45.963Z,0.72
2023-04-12T05:28:45.972Z,0.89
2023-04-12T05:29:45.929Z,0.72
2023-04-12T05:30:45.948Z,0.72
2023-04-12T05:32:45.981Z,0.28
2023-04-12T05:34:45.938Z,0.89
2023-04-12T05:36:45.934Z,1.06
2023-04-12T05:37:45.942Z,0.72
2023-04-12T05:39:45.958Z,0.89
2023-04-12T05:40:45.973Z,0.72
2023-04-12T05:41:45.934Z,0.61
2023-04-12T05:42:45.931Z,0.17
2023-04-12T05:43:45.939Z,0.61
2023-04-12T05:45:46.066Z,0.72
2023-04-12T05:47:45.958Z,0.17
2023-04-12T05:49:45.945Z,0.61
2023-04-12T05:50:45.943Z,0.28
2023-04-12T05:51:45.935Z,0.28
2023-04-12T05:53:45.944Z,0.17
2023-04-12T05:55:45.939Z,0.28
2023-04-12T05:56:45.968Z,0.44
2023-04-12T05:57:45.930Z,0.89
2023-04-12T05:58:45.936Z,0.89
2023-04-12T05:59:45.962Z,0.61
2023-04-12T06:00:45.941Z,0.72
2023-04-12T06:01:45.962Z,0.72
2023-04-12T06:02:46.180Z,0.72
2023-04-12T06:03:46.072Z,0.72
2023-04-12T06:05:46.018Z,1.17
2023-04-12T06:07:45.961Z,1.17
2023-04-12T06:09:45.958Z,1.33
2023-04-12T06:10:45.950Z,1.17
2023-04-12T06:11:45.957Z,1.5
2023-04-12T06:12:45.982Z,1.33
2023-04-12T06:13:45.952Z,1.5
2023-04-12T06:14:45.947Z,1.33
2023-04-12T06:15:45.986Z,1.17
2023-04-12T06:16:45.950Z,1.33
2023-04-12T06:17:45.983Z,1.5
2023-04-12T06:18:45.948Z,1.61
2023-04-12T06:19:45.960Z,1.61
2023-04-12T06:20:45.963Z,1.89
2023-04-12T06:21:45.951Z,1.89
2023-04-12T06:22:45.959Z,1.61
2023-04-12T06:24:45.976Z,2.17
2023-04-12T06:25:45.957Z,1.89
2023-04-12T06:26:45.964Z,1.89
2023-04-12T06:28:45.993Z,1.89
2023-04-12T06:30:45.980Z,1.61
2023-04-12T06:32:45.993Z,2.17
2023-04-12T06:34:45.951Z,2.17
2023-04-12T06:35:46.013Z,1.72
2023-04-12T06:36:45.965Z,1.89
2023-04-12T06:38:45.985Z,1.72
2023-04-12T06:39:45.950Z,1.72
2023-04-12T06:40:45.954Z,2.28
2023-04-12T06:42:45.945Z,2.28
2023-04-12T06:43:45.959Z,1.89
2023-04-12T06:44:45.990Z,2.28
2023-04-12T06:45:45.953Z,2.28
2023-04-12T06:46:46.003Z,2.89
2023-04-12T06:48:46.013Z,2.89
2023-04-12T06:50:45.978Z,3.83
2023-04-12T06:52:45.964Z,3.17
2023-04-12T06:53:46.036Z,3.17
2023-04-12T06:54:45.954Z,3.17
2023-04-12T06:55:45.955Z,3.44
2023-04-12T06:56:45.964Z,3.72
2023-04-12T06:58:45.951Z,4.17
2023-04-12T06:59:45.953Z,3.83
2023-04-12T07:00:46.005Z,3.56
2023-04-12T07:01:45.995Z,3.83
2023-04-12T07:02:46.080Z,3.56
2023-04-12T07:04:45.963Z,4.17
2023-04-12T07:05:45.961Z,4.17
2023-04-12T07:06:45.967Z,3.83
2023-04-12T07:07:45.963Z,4.17
2023-04-12T07:09:45.969Z,3.83
2023-04-12T07:11:45.958Z,3.83
2023-04-12T07:13:45.969Z,3.56
2023-04-12T07:14:45.972Z,3.33
2023-04-12T07:15:45.975Z,3.17
2023-04-12T07:16:46.204Z,3.44
2023-04-12T07:17:46.025Z,3.56
2023-04-12T07:18:45.963Z,3.33
2023-04-12T07:19:45.971Z,3.44
2023-04-12T07:20:45.963Z,3.44
2023-04-12T07:21:45.966Z,3.56
2023-04-12T07:23:45.980Z,3.72
2023-04-12T07:25:45.960Z,4
2023-04-12T07:26:46.142Z,3.72
2023-04-12T07:27:45.958Z,3.72
2023-04-12T07:28:45.972Z,3.83
2023-04-12T07:29:45.968Z,3.83
2023-04-12T07:30:45.976Z,4.28
2023-04-12T07:32:46.247Z,4.56
2023-04-12T07:34:45.982Z,4.44
2023-04-12T07:36:45.979Z,4.44
2023-04-12T07:37:45.981Z,4.89
2023-04-12T07:39:46.013Z,5.17
2023-04-12T07:40:49.211Z,5
2023-04-12T07:41:45.960Z,5.61
2023-04-12T07:42:45.979Z,5.61
2023-04-12T07:44:45.964Z,5.33
2023-04-12T07:45:46.099Z,5
2023-04-12T07:47:46.025Z,5.33
2023-04-12T07:48:46.023Z,5.61
2023-04-12T07:49:45.971Z,5.61
2023-04-12T07:50:45.969Z,5.44
2023-04-12T07:51:45.974Z,5.61
2023-04-12T07:52:45.978Z,5.17
2023-04-12T07:54:45.983Z,6.28
2023-04-12T07:55:45.977Z,6
2023-04-12T07:56:45.971Z,5.44
2023-04-12T07:57:45.976Z,5.17
2023-04-12T07:58:45.968Z,4.72
2023-04-12T07:59:45.992Z,5
2023-04-12T08:00:45.976Z,5.17
2023-04-12T08:01:45.990Z,5
2023-04-12T08:02:46.131Z,5.33
2023-04-12T08:04:46.002Z,5.61
2023-04-12T08:06:45.971Z,5.83
2023-04-12T08:07:45.986Z,5.72
2023-04-12T08:09:45.981Z,5
2023-04-12T08:10:45.978Z,5.39
2023-04-12T08:11:45.990Z,5.22
2023-04-12T08:12:45.984Z,5.56
2023-04-12T08:13:45.988Z,5.78
2023-04-12T08:14:46.002Z,6
2023-04-12T08:16:45.995Z,5.78
2023-04-12T08:17:46.005Z,5.78
2023-04-12T08:19:46.011Z,5.67
2023-04-12T08:20:46.014Z,5.67
2023-04-12T08:22:45.992Z,5.22
2023-04-12T08:23:45.993Z,5.11
2023-04-12T08:24:45.990Z,5.39
2023-04-12T08:26:45.985Z,5.78
2023-04-12T08:27:45.991Z,5.39
2023-04-12T08:28:45.988Z,5.39
2023-04-12T08:29:46.002Z,5.78
2023-04-12T08:31:46.110Z,5.78
2023-04-12T08:32:46.080Z,6.22
2023-04-12T08:33:45.999Z,6.67
2023-04-12T08:35:46.026Z,5.78
2023-04-12T08:36:46.009Z,5.78
2023-04-12T08:38:46.717Z,6.06
2023-04-12T08:40:46.005Z,5.94
2023-04-12T08:41:45.994Z,6.22
2023-04-12T08:42:45.991Z,6.22
2023-04-12T08:43:46.049Z,6.06
2023-04-12T08:44:46.006Z,6.06
2023-04-12T08:45:46.000Z,6.22
2023-04-12T08:47:46.085Z,6.06
2023-04-12T08:49:45.993Z,6.22
2023-04-12T08:50:46.020Z,6.5
2023-04-12T08:51:46.003Z,5.78
2023-04-12T08:52:46.032Z,6.22
2023-04-12T08:54:46.000Z,5.94
2023-04-12T08:56:45.995Z,5.67
2023-04-12T08:58:46.088Z,6.22
2023-04-12T09:00:46.034Z,6.22
2023-04-12T09:01:46.124Z,6.22
2023-04-12T09:02:46.242Z,6.06
2023-04-12T09:03:46.163Z,6.22
2023-04-12T09:04:46.088Z,6.67
2023-04-12T09:05:46.002Z,6.78
2023-04-12T09:07:46.003Z,6.06
2023-04-12T09:08:46.135Z,6.39
2023-04-12T09:09:46.007Z,6.67
2023-04-12T09:10:46.002Z,6.67
2023-04-12T09:11:46.017Z,6.22
2023-04-12T09:13:45.995Z,6.39
2023-04-12T09:14:46.017Z,6.5
2023-04-12T09:16:46.044Z,6.22
2023-04-12T09:17:46.025Z,6.5
2023-04-12T09:18:46.127Z,6.39
2023-04-12T09:19:46.003Z,6.78
2023-04-12T09:20:45.997Z,7.11
2023-04-12T09:21:46.014Z,6.78
2023-04-12T09:22:46.018Z,7.22
2023-04-12T09:23:46.004Z,7.5
2023-04-12T09:24:46.032Z,7.11
2023-04-12T09:26:46.011Z,7.5
2023-04-12T09:27:46.019Z,7.5
2023-04-12T09:28:46.026Z,7.22
2023-04-12T09:30:46.012Z,7.5
2023-04-12T09:31:46.067Z,7.22
2023-04-12T09:32:46.161Z,7.22
2023-04-12T09:33:46.025Z,7.5
2023-04-12T09:35:46.100Z,7.67
2023-04-12T09:37:46.014Z,7.5
2023-04-12T09:38:46.032Z,7.94
2023-04-12T09:39:46.062Z,7.94
2023-04-12T09:40:46.077Z,7.5
2023-04-12T09:41:46.049Z,7.5
2023-04-12T09:42:46.009Z,7.11
2023-04-12T09:43:46.012Z,6.78
2023-04-12T09:45:46.052Z,7.11
2023-04-12T09:46:48.120Z,6.78
2023-04-12T09:47:46.058Z,7.11
2023-04-12T09:48:46.004Z,6.67
2023-04-12T09:49:46.040Z,6.67
2023-04-12T09:50:46.010Z,6.94
2023-04-12T09:51:46.058Z,7.11
2023-04-12T09:52:46.021Z,6.94
2023-04-12T09:53:46.014Z,6.67
2023-04-12T09:54:46.015Z,6.67
2023-04-12T09:56:46.064Z,6.94
2023-04-12T09:57:46.076Z,6.78
2023-04-12T09:58:46.017Z,7.11
2023-04-12T09:59:46.028Z,7.39
2023-04-12T10:00:46.031Z,7.22
2023-04-12T10:01:46.054Z,7.39
2023-04-12T10:02:46.980Z,7.39
2023-04-12T10:04:46.062Z,7.5
2023-04-12T10:06:46.048Z,7.39
2023-04-12T10:07:46.022Z,7.39
2023-04-12T10:08:46.017Z,7.22
2023-04-12T10:09:46.016Z,7.39
2023-04-12T10:10:46.005Z,7.5
2023-04-12T10:11:46.006Z,7.39
2023-04-12T10:12:46.057Z,7.39
2023-04-12T10:14:46.009Z,6.94
2023-04-12T10:16:46.031Z,6.94
2023-04-12T10:17:46.036Z,7.39
2023-04-12T10:18:46.022Z,7.78
2023-04-12T10:20:46.020Z,7.39
2023-04-12T10:21:46.012Z,7.39
2023-04-12T10:22:46.057Z,7.67
2023-04-12T10:24:46.046Z,7.94
2023-04-12T10:25:46.011Z,7.94
2023-04-12T10:26:46.006Z,8.11
2023-04-12T10:27:46.046Z,7.94
2023-04-12T10:28:46.122Z,7.94
2023-04-12T10:29:46.051Z,7.94
2023-04-12T10:30:46.043Z,7.94
2023-04-12T10:31:46.026Z,8.28
2023-04-12T10:32:46.049Z,7.94
2023-04-12T10:33:46.014Z,7.94
2023-04-12T10:34:46.039Z,7.94
2023-04-12T10:35:46.047Z,7.5
2023-04-12T10:36:46.034Z,7.5
2023-04-12T10:37:46.022Z,7.39
2023-04-12T10:38:46.064Z,7.22
2023-04-12T10:40:46.028Z,7.22
2023-04-12T10:41:46.031Z,7.11
2023-04-12T10:42:46.038Z,6.94
2023-04-12T10:43:46.015Z,6.67
2023-04-12T10:44:46.091Z,6.5
2023-04-12T10:46:46.090Z,7.39
2023-04-12T10:47:46.083Z,7.78
2023-04-12T10:48:46.028Z,7.39
2023-04-12T10:50:46.041Z,8.11
2023-04-12T10:52:46.080Z,7.94
2023-04-12T10:53:46.027Z,7.94
2023-04-12T10:54:46.040Z,8.11
2023-04-12T10:55:46.110Z,8.39
2023-04-12T10:57:46.020Z,8.39
2023-04-12T10:58:46.050Z,8.39
2023-04-12T10:59:47.814Z,8.39
2023-04-12T11:00:46.157Z,8.39
2023-04-12T11:02:46.141Z,8.78
2023-04-12T11:03:46.119Z,8.78
2023-04-12T11:04:46.116Z,8.94
2023-04-12T11:05:46.107Z,8.78
2023-04-12T11:07:46.028Z,9.67
2023-04-12T11:09:46.024Z,9.5
2023-04-12T11:10:46.074Z,9.78
2023-04-12T11:11:46.031Z,9.67
2023-04-12T11:12:46.031Z,9.78
2023-04-12T11:13:46.027Z,10.39
2023-04-12T11:14:46.025Z,10.11
2023-04-12T11:15:46.045Z,10.11
2023-04-12T11:16:46.107Z,10.56
2023-04-12T11:18:46.027Z,10.56
2023-04-12T11:19:46.045Z,10.67
2023-04-12T11:20:46.073Z,10.83
2023-04-12T11:21:46.066Z,10.83
2023-04-12T11:23:46.023Z,10.56
2023-04-12T11:24:46.030Z,10.67
2023-04-12T11:25:46.034Z,10.39
2023-04-12T11:26:46.033Z,10.56
2023-04-12T11:27:46.034Z,10.56
2023-04-12T11:29:46.028Z,10.56
2023-04-12T11:31:46.132Z,10.83
2023-04-12T11:32:46.075Z,10.83
2023-04-12T11:34:46.033Z,11.44
2023-04-12T11:35:46.048Z,10.83
2023-04-12T11:37:46.043Z,11
2023-04-12T11:39:46.047Z,12.11
2023-04-12T11:40:46.029Z,12.56
2023-04-12T11:41:46.039Z,12.72
2023-04-12T11:43:46.063Z,12.72
2023-04-12T11:44:54.973Z,12.72
2023-04-12T11:46:46.040Z,11.72
2023-04-12T11:48:46.148Z,11.44
2023-04-12T11:49:46.031Z,11.44
2023-04-12T11:50:48.424Z,11.61
2023-04-12T11:51:48.322Z,11.61
2023-04-12T11:53:46.057Z,10.67
2023-04-12T11:54:46.045Z,11.28
2023-04-12T11:55:46.029Z,11.28
2023-04-12T11:56:46.056Z,10.83
2023-04-12T11:57:46.040Z,11.44
2023-04-12T11:58:46.047Z,11
2023-04-12T11:59:46.038Z,11.61
2023-04-12T12:00:46.037Z,11.61
2023-04-12T12:01:46.063Z,11.83
2023-04-12T12:02:52.488Z,11.44
2023-04-12T12:03:46.313Z,11.83
2023-04-12T12:04:46.385Z,11.61
2023-04-12T12:06:46.794Z,11.94
2023-04-12T12:07:46.059Z,12.28
2023-04-12T12:08:46.039Z,12.28
2023-04-12T12:09:46.043Z,12.44
2023-04-12T12:11:00.442Z,11.94
2023-04-12T12:11:46.040Z,12.56
2023-04-12T12:12:46.056Z,12.44
2023-04-12T12:13:46.047Z,11.44
2023-04-12T12:14:46.057Z,10.83
2023-04-12T12:15:46.125Z,11
2023-04-12T12:17:46.109Z,11.33
2023-04-12T12:18:46.068Z,11.17
2023-04-12T12:19:46.069Z,10.61
2023-04-12T12:20:46.121Z,11.17
2023-04-12T12:22:46.056Z,11.78
2023-04-12T12:23:46.091Z,11.78
2023-04-12T12:24:46.057Z,11.89
2023-04-12T12:25:46.080Z,11.33
2023-04-12T12:26:46.054Z,11.5
2023-04-12T12:27:46.113Z,11.89
2023-04-12T12:28:46.066Z,12
2023-04-12T12:29:46.057Z,11.61
2023-04-12T12:30:46.067Z,11.5
2023-04-12T12:32:46.141Z,11.33
2023-04-12T12:33:47.277Z,11.61
2023-04-12T12:34:46.070Z,11.5
2023-04-12T12:35:46.088Z,12
2023-04-12T12:36:46.149Z,11.89
2023-04-12T12:38:46.076Z,12.78
2023-04-12T12:40:46.065Z,13.39
2023-04-12T12:41:46.068Z,13.39
2023-04-12T12:43:46.074Z,12.5
2023-04-12T12:44:46.076Z,12.17
2023-04-12T12:46:53.934Z,11.78
2023-04-12T12:47:46.148Z,11.33
2023-04-12T12:49:46.075Z,12.17
2023-04-12T12:50:46.079Z,12
2023-04-12T12:51:46.059Z,12.5
2023-04-12T12:52:46.092Z,11.89
2023-04-12T12:53:46.059Z,12
2023-04-12T12:54:46.065Z,12.5
2023-04-12T12:55:46.073Z,13.83
2023-04-12T12:56:46.068Z,14.44
2023-04-12T12:57:52.186Z,14.28
2023-04-12T12:58:46.071Z,14.44
2023-04-12T12:59:46.061Z,14.78
2023-04-12T13:00:46.074Z,14.11
2023-04-12T13:01:46.222Z,13.39
2023-04-12T13:03:46.172Z,12.94
2023-04-12T13:04:46.137Z,12.33
2023-04-12T13:05:46.072Z,12.17
2023-04-12T13:06:46.076Z,12.78
2023-04-12T13:08:46.094Z,12.5
2023-04-12T13:10:46.090Z,12.61
2023-04-12T13:12:46.077Z,12.78
2023-04-12T13:13:46.081Z,13.56
2023-04-12T13:14:46.068Z,13.39
2023-04-12T13:15:46.078Z,13.67
2023-04-12T13:17:46.083Z,13.39
2023-04-12T13:18:46.074Z,13.11
2023-04-12T13:19:46.064Z,13.11
2023-04-12T13:20:46.069Z,12.33
2023-04-12T13:21:46.064Z,12.17
2023-04-12T13:22:46.062Z,12
2023-04-12T13:24:46.109Z,11.89
2023-04-12T13:25:46.063Z,12.94
2023-04-12T13:26:46.066Z,12.94
2023-04-12T13:27:46.093Z,12.33
2023-04-12T13:28:46.082Z,13.39
2023-04-12T13:29:46.065Z,13.83
2023-04-12T13:30:46.076Z,13.39
2023-04-12T13:31:46.112Z,13.83
2023-04-12T13:32:46.112Z,13.39
2023-04-12T13:33:46.077Z,13.39
2023-04-12T13:34:46.066Z,14.28
2023-04-12T13:35:46.082Z,14.89
2023-04-12T13:37:46.086Z,15.17
2023-04-12T13:39:46.084Z,15.44
2023-04-12T13:40:46.121Z,15.61
2023-04-12T13:42:46.075Z,15.61
2023-04-12T13:43:46.068Z,13.39
2023-04-12T13:44:46.076Z,13.22
2023-04-12T13:45:46.084Z,13.67
2023-04-12T13:46:46.127Z,13.83
2023-04-12T13:47:46.113Z,13.56
2023-04-12T13:48:46.090Z,12.61
2023-04-12T13:49:46.075Z,12.56
2023-04-12T13:50:47.295Z,12.67
2023-04-12T13:51:46.077Z,12.22
2023-04-12T13:52:46.087Z,12.56
2023-04-12T13:53:46.072Z,12.67
2023-04-12T13:54:46.087Z,13.56
2023-04-12T13:55:46.083Z,13.44
2023-04-12T13:56:46.106Z,13.44
2023-04-12T13:57:46.071Z,13.28
2023-04-12T13:58:46.081Z,13.44
2023-04-12T13:59:46.073Z,13.56
2023-04-12T14:00:46.132Z,13.56
2023-04-12T14:01:46.447Z,13.17
2023-04-12T14:02:46.130Z,12.67
2023-04-12T14:03:46.070Z,13.17
2023-04-12T14:04:46.122Z,13.56
2023-04-12T14:05:46.077Z,14.61
2023-04-12T14:06:46.072Z,15.11
2023-04-12T14:07:46.080Z,15.83
2023-04-12T14:09:46.077Z,14.06
2023-04-12T14:10:46.093Z,14.06
2023-04-12T14:12:46.139Z,13.56
2023-04-12T14:13:46.307Z,13.56
2023-04-12T14:14:46.084Z,13.17
2023-04-12T14:15:46.101Z,12.67
2023-04-12T14:16:46.085Z,12.56
2023-04-12T14:17:46.203Z,14.33
2023-04-12T14:19:46.082Z,12.83
2023-04-12T14:21:46.076Z,13.44
2023-04-12T14:22:46.086Z,13.89
2023-04-12T14:23:46.079Z,14.33
2023-04-12T14:24:46.096Z,14.5
2023-04-12T14:25:46.083Z,14.06
2023-04-12T14:26:46.099Z,14.5
2023-04-12T14:27:46.080Z,14.33
2023-04-12T14:28:46.104Z,14.06
2023-04-12T14:29:46.083Z,14.06
2023-04-12T14:30:46.102Z,14.06
2023-04-12T14:31:46.118Z,14.06
2023-04-12T14:33:46.419Z,14.61
2023-04-12T14:34:46.083Z,15.33
2023-04-12T14:35:46.092Z,14.83
2023-04-12T14:36:46.109Z,14.83
2023-04-12T14:38:46.093Z,14.83
2023-04-12T14:40:46.088Z,14.83
2023-04-12T14:41:46.090Z,14.61
2023-04-12T14:42:46.075Z,15.67
2023-04-12T14:43:46.080Z,16.28
2023-04-12T14:44:46.134Z,16.28
2023-04-12T14:46:46.130Z,16.72
2023-04-12T14:47:46.105Z,16.44
2023-04-12T14:48:46.082Z,16.28
2023-04-12T14:49:46.084Z,15.33
2023-04-12T14:50:46.084Z,14.33
2023-04-12T14:52:46.085Z,14.33
2023-04-12T14:54:46.084Z,15.22
2023-04-12T14:56:51.424Z,15.5
2023-04-12T14:57:46.118Z,15.11
2023-04-12T14:58:46.075Z,14.83
2023-04-12T14:59:46.109Z,14.61
2023-04-12T15:00:46.670Z,15.33
2023-04-12T15:01:46.150Z,15.11
2023-04-12T15:02:46.492Z,15.11
2023-04-12T15:03:46.211Z,15.33
2023-04-12T15:04:46.236Z,14.5
2023-04-12T15:05:46.094Z,14.33
2023-04-12T15:06:46.095Z,15.22
2023-04-12T15:07:47.077Z,14.94
2023-04-12T15:09:46.101Z,14.33
2023-04-12T15:10:46.086Z,15.33
2023-04-12T15:11:46.106Z,14.5
2023-04-12T15:12:46.086Z,14.33
2023-04-12T15:13:46.126Z,14.5
2023-04-12T15:14:46.107Z,14.33
2023-04-12T15:16:46.269Z,14.94
2023-04-12T15:18:46.108Z,15.33
2023-04-12T15:19:46.112Z,15.11
2023-04-12T15:21:46.110Z,15.67
2023-04-12T15:22:46.132Z,15.67
2023-04-12T15:23:46.112Z,15.33
2023-04-12T15:24:46.110Z,15.5
2023-04-12T15:26:46.114Z,15.11
2023-04-12T15:27:46.118Z,15.5
2023-04-12T15:29:46.118Z,15.5
2023-04-12T15:30:46.121Z,15.83
2023-04-12T15:31:46.175Z,16.28
2023-04-12T15:32:46.144Z,16.11
2023-04-12T15:34:46.120Z,16.28
2023-04-12T15:35:46.120Z,15.5
2023-04-12T15:37:46.170Z,16.44
2023-04-12T15:38:46.132Z,16.72
2023-04-12T15:39:46.116Z,16.28
2023-04-12T15:40:46.116Z,16.11
2023-04-12T15:41:46.122Z,16.11
2023-04-12T15:43:46.129Z,15.83
2023-04-12T15:44:46.123Z,15.5
2023-04-12T15:45:46.238Z,15.83
2023-04-12T15:46:53.264Z,16.11
2023-04-12T15:47:46.200Z,16.11
2023-04-12T15:48:46.138Z,15.94
2023-04-12T15:50:46.122Z,16.72
2023-04-12T15:52:46.120Z,17.5
2023-04-12T15:53:46.109Z,16.72
2023-04-12T15:54:46.124Z,18
2023-04-12T15:56:46.136Z,16.72
2023-04-12T15:57:46.128Z,16.56
2023-04-12T15:59:46.140Z,17.67
2023-04-12T16:01:46.217Z,16.72
2023-04-12T16:02:46.243Z,17.22
2023-04-12T16:03:46.494Z,17.06
2023-04-12T16:04:46.325Z,17.06
2023-04-12T16:05:46.125Z,17.06
2023-04-12T16:06:46.159Z,16.72
2023-04-12T16:08:46.846Z,16.44
2023-04-12T16:09:46.133Z,16.11
2023-04-12T16:10:46.126Z,16.56
2023-04-12T16:11:46.149Z,15.83
2023-04-12T16:12:46.142Z,15.5
2023-04-12T16:13:46.135Z,15.22
2023-04-12T16:14:46.136Z,15.22
2023-04-12T16:15:46.173Z,14.83
2023-04-12T16:17:46.184Z,14.5
2023-04-12T16:18:46.197Z,14.5
2023-04-12T16:19:46.137Z,14.61
2023-04-12T16:20:46.167Z,14.94
2023-04-12T16:22:46.138Z,15.22
2023-04-12T16:24:46.133Z,14.94
2023-04-12T16:25:46.134Z,14.83
2023-04-12T16:26:46.155Z,14.5
2023-04-12T16:27:46.145Z,14.61
2023-04-12T16:28:46.131Z,14.94
2023-04-12T16:29:46.154Z,15.11
2023-04-12T16:30:46.175Z,14.94
2023-04-12T16:31:46.212Z,14.94
2023-04-12T16:32:46.169Z,14.83
2023-04-12T16:35:46.142Z,14.94
2023-04-12T16:36:46.191Z,14.5
2023-04-12T16:37:46.141Z,14.94